sensor_id;sensor_type;location;lat;lon;timestamp;pressure;altitude;pressure_sealevel;temperature;humidity
62201;BME280;48197;42.732;27.192;2023-02-19T00:02:04;99830.66;;;9.39;67.96
62201;BME280;48197;42.732;27.192;2023-02-19T00:04:30;99828.28;;;9.37;67.38
62201;BME280;48197;42.732;27.192;2023-02-19T00:06:57;99829.47;;;9.44;67.06
62201;BME280;48197;42.732;27.192;2023-02-19T00:09:24;99831.81;;;9.45;66.77
62201;BME280;48197;42.732;27.192;2023-02-19T00:11:51;99822.75;;;9.37;67.24
62201;BME280;48197;42.732;27.192;2023-02-19T00:14:19;99825.91;;;9.29;67.28
62201;BME280;48197;42.732;27.192;2023-02-19T00:16:45;99823.16;;;9.29;66.89
62201;BME280;48197;42.732;27.192;2023-02-19T00:19:14;99814.84;;;9.22;67.90
62201;BME280;48197;42.732;27.192;2023-02-19T00:21:41;99812.50;;;9.16;67.65
62201;BME280;48197;42.732;27.192;2023-02-19T00:24:09;99800.28;;;9.10;68.10
62201;BME280;48197;42.732;27.192;2023-02-19T00:26:36;99797.50;;;8.96;68.83
62201;BME280;48197;42.732;27.192;2023-02-19T00:29:03;99799.50;;;9.03;68.39
62201;BME280;48197;42.732;27.192;2023-02-19T00:31:30;99795.91;;;8.91;68.94
62201;BME280;48197;42.732;27.192;2023-02-19T00:33:58;99795.91;;;8.81;69.60
62201;BME280;48197;42.732;27.192;2023-02-19T00:36:25;99786.06;;;8.94;68.75
62201;BME280;48197;42.732;27.192;2023-02-19T00:38:52;99787.66;;;8.98;68.16
62201;BME280;48197;42.732;27.192;2023-02-19T00:41:20;99779.78;;;8.93;68.53
62201;BME280;48197;42.732;27.192;2023-02-19T00:43:47;99785.28;;;8.86;69.12
62201;BME280;48197;42.732;27.192;2023-02-19T00:46:18;99778.19;;;8.78;69.47
62201;BME280;48197;42.732;27.192;2023-02-19T00:48:45;99776.19;;;8.71;69.75
62201;BME280;48197;42.732;27.192;2023-02-19T00:51:13;99778.13;;;8.64;70.22
62201;BME280;48197;42.732;27.192;2023-02-19T00:53:40;99768.31;;;8.70;69.84
62201;BME280;48197;42.732;27.192;2023-02-19T00:56:07;99775.38;;;8.64;70.31
62201;BME280;48197;42.732;27.192;2023-02-19T00:58:34;99758.88;;;8.60;69.93
62201;BME280;48197;42.732;27.192;2023-02-19T01:01:01;99776.56;;;8.63;70.12
62201;BME280;48197;42.732;27.192;2023-02-19T01:03:28;99747.81;;;8.64;69.78
62201;BME280;48197;42.732;27.192;2023-02-19T01:05:54;99758.47;;;8.65;69.34
62201;BME280;48197;42.732;27.192;2023-02-19T01:08:21;99756.47;;;8.55;69.36
62201;BME280;48197;42.732;27.192;2023-02-19T01:10:47;99752.13;;;8.50;70.01
62201;BME280;48197;42.732;27.192;2023-02-19T01:13:14;99761.16;;;8.44;70.44
62201;BME280;48197;42.732;27.192;2023-02-19T01:15:41;99754.84;;;8.39;71.37
62201;BME280;48197;42.732;27.192;2023-02-19T01:18:08;99748.16;;;8.41;70.79
62201;BME280;48197;42.732;27.192;2023-02-19T01:20:36;99750.09;;;8.40;70.20
62201;BME280;48197;42.732;27.192;2023-02-19T01:23:03;99745.75;;;8.32;70.37
62201;BME280;48197;42.732;27.192;2023-02-19T01:25:29;99738.25;;;8.25;70.60
62201;BME280;48197;42.732;27.192;2023-02-19T01:27:56;99739.81;;;8.19;71.66
62201;BME280;48197;42.732;27.192;2023-02-19T01:30:23;99745.31;;;8.15;71.35
62201;BME280;48197;42.732;27.192;2023-02-19T01:32:49;99741.72;;;8.08;71.02
62201;BME280;48197;42.732;27.192;2023-02-19T01:35:16;99740.53;;;7.98;72.22
62201;BME280;48197;42.732;27.192;2023-02-19T01:37:42;99740.47;;;7.87;72.39
62201;BME280;48197;42.732;27.192;2023-02-19T01:40:09;99737.63;;;7.76;72.45
62201;BME280;48197;42.732;27.192;2023-02-19T01:42:35;99728.91;;;7.64;73.21
62201;BME280;48197;42.732;27.192;2023-02-19T01:45:14;99729.31;;;7.66;73.17
62201;BME280;48197;42.732;27.192;2023-02-19T01:47:45;99721.06;;;7.62;73.42
62201;BME280;48197;42.732;27.192;2023-02-19T01:50:11;99723.78;;;7.59;73.61
62201;BME280;48197;42.732;27.192;2023-02-19T01:52:38;99724.94;;;7.54;73.94
62201;BME280;48197;42.732;27.192;2023-02-19T01:55:05;99724.59;;;7.63;73.73
62201;BME280;48197;42.732;27.192;2023-02-19T01:57:32;99726.50;;;7.55;73.35
62201;BME280;48197;42.732;27.192;2023-02-19T02:00:05;99728.41;;;7.44;73.93
62201;BME280;48197;42.732;27.192;2023-02-19T02:02:34;99727.97;;;7.38;74.51
62201;BME280;48197;42.732;27.192;2023-02-19T02:05:01;99729.16;;;7.37;74.51
62201;BME280;48197;42.732;27.192;2023-02-19T02:07:28;99725.59;;;7.33;74.85
62201;BME280;48197;42.732;27.192;2023-02-19T02:10:13;99732.63;;;7.27;75.03
62201;BME280;48197;42.732;27.192;2023-02-19T02:12:46;99721.13;;;7.14;76.01
62201;BME280;48197;42.732;27.192;2023-02-19T02:15:13;99728.59;;;7.13;77.21
62201;BME280;48197;42.732;27.192;2023-02-19T02:17:53;99733.00;;;7.22;76.56
62201;BME280;48197;42.732;27.192;2023-02-19T02:20:44;99716.91;;;7.27;75.74
62201;BME280;48197;42.732;27.192;2023-02-19T02:28:32;99716.22;;;7.41;76.09
62201;BME280;48197;42.732;27.192;2023-02-19T02:31:11;99719.41;;;7.47;75.09
62201;BME280;48197;42.732;27.192;2023-02-19T02:34:00;99720.22;;;7.54;74.82
62201;BME280;48197;42.732;27.192;2023-02-19T02:36:30;99723.31;;;7.46;75.06
62201;BME280;48197;42.732;27.192;2023-02-19T02:38:59;99730.38;;;7.43;75.54
62201;BME280;48197;42.732;27.192;2023-02-19T02:41:26;99725.69;;;7.47;75.00
62201;BME280;48197;42.732;27.192;2023-02-19T02:43:53;99735.97;;;7.54;74.84
62201;BME280;48197;42.732;27.192;2023-02-19T02:46:23;99732.91;;;7.66;73.30
62201;BME280;48197;42.732;27.192;2023-02-19T02:48:52;99732.94;;;7.81;72.37
62201;BME280;48197;42.732;27.192;2023-02-19T02:51:25;99739.72;;;7.97;71.66
62201;BME280;48197;42.732;27.192;2023-02-19T02:56:39;99737.81;;;8.12;69.97
62201;BME280;48197;42.732;27.192;2023-02-19T02:59:07;99738.28;;;8.29;69.84
62201;BME280;48197;42.732;27.192;2023-02-19T03:01:56;99743.09;;;8.50;68.25
62201;BME280;48197;42.732;27.192;2023-02-19T03:07:41;99750.19;;;8.58;66.87
62201;BME280;48197;42.732;27.192;2023-02-19T03:10:10;99754.91;;;8.61;66.68
62201;BME280;48197;42.732;27.192;2023-02-19T03:12:39;99760.84;;;8.70;66.43
62201;BME280;48197;42.732;27.192;2023-02-19T03:15:25;99756.06;;;8.53;66.48
62201;BME280;48197;42.732;27.192;2023-02-19T03:18:11;99764.69;;;8.41;67.47
62201;BME280;48197;42.732;27.192;2023-02-19T03:20:57;99772.78;;;8.08;69.13
62201;BME280;48197;42.732;27.192;2023-02-19T03:23:26;99774.25;;;7.84;70.40
62201;BME280;48197;42.732;27.192;2023-02-19T03:26:13;99770.56;;;7.59;70.73
62201;BME280;48197;42.732;27.192;2023-02-19T03:28:40;99784.56;;;7.39;72.10
62201;BME280;48197;42.732;27.192;2023-02-19T03:31:26;99784.06;;;7.26;73.05
62201;BME280;48197;42.732;27.192;2023-02-19T03:33:58;99787.84;;;7.07;74.45
62201;BME280;48197;42.732;27.192;2023-02-19T03:36:26;99788.78;;;6.85;75.56
62201;BME280;48197;42.732;27.192;2023-02-19T03:38:59;99791.78;;;6.69;76.19
62201;BME280;48197;42.732;27.192;2023-02-19T03:49:17;99796.31;;;6.20;80.76
62201;BME280;48197;42.732;27.192;2023-02-19T03:51:58;99802.50;;;6.13;81.55
62201;BME280;48197;42.732;27.192;2023-02-19T03:57:46;99798.06;;;6.02;83.49
62201;BME280;48197;42.732;27.192;2023-02-19T04:00:08;99785.44;;;5.97;83.57
62201;BME280;48197;42.732;27.192;2023-02-19T04:05:34;99783.19;;;5.76;85.51
62201;BME280;48197;42.732;27.192;2023-02-19T04:08:04;99777.56;;;5.69;86.11
62201;BME280;48197;42.732;27.192;2023-02-19T04:10:34;99781.38;;;5.61;87.00
62201;BME280;48197;42.732;27.192;2023-02-19T04:13:04;99791.03;;;5.51;88.16
62201;BME280;48197;42.732;27.192;2023-02-19T04:15:33;99791.88;;;5.55;88.47
62201;BME280;48197;42.732;27.192;2023-02-19T04:18:05;99791.53;;;5.60;88.62
62201;BME280;48197;42.732;27.192;2023-02-19T04:20:34;99804.53;;;5.63;88.03
62201;BME280;48197;42.732;27.192;2023-02-19T04:23:02;99796.94;;;5.53;88.15
62201;BME280;48197;42.732;27.192;2023-02-19T04:25:29;99808.88;;;5.41;89.04
62201;BME280;48197;42.732;27.192;2023-02-19T04:27:56;99811.88;;;5.32;90.96
62201;BME280;48197;42.732;27.192;2023-02-19T04:30:23;99814.69;;;5.36;91.12
62201;BME280;48197;42.732;27.192;2023-02-19T04:32:50;99825.69;;;5.40;91.00
62201;BME280;48197;42.732;27.192;2023-02-19T04:35:16;99819.13;;;5.44;91.17
62201;BME280;48197;42.732;27.192;2023-02-19T04:37:43;99825.50;;;5.52;90.59
62201;BME280;48197;42.732;27.192;2023-02-19T04:40:09;99821.22;;;5.55;90.38
62201;BME280;48197;42.732;27.192;2023-02-19T04:42:36;99830.28;;;5.59;89.82
62201;BME280;48197;42.732;27.192;2023-02-19T04:45:03;99819.22;;;5.51;90.22
62201;BME280;48197;42.732;27.192;2023-02-19T04:47:31;99834.22;;;5.58;89.98
62201;BME280;48197;42.732;27.192;2023-02-19T04:49:58;99836.84;;;5.50;90.10
62201;BME280;48197;42.732;27.192;2023-02-19T04:52:24;99827.03;;;5.49;90.04
62201;BME280;48197;42.732;27.192;2023-02-19T04:54:51;99827.72;;;5.43;91.13
62201;BME280;48197;42.732;27.192;2023-02-19T04:57:18;99841.00;;;5.41;91.54
62201;BME280;48197;42.732;27.192;2023-02-19T04:59:45;99841.53;;;5.50;91.35
62201;BME280;48197;42.732;27.192;2023-02-19T05:02:11;99845.44;;;5.49;91.42
62201;BME280;48197;42.732;27.192;2023-02-19T05:04:38;99843.84;;;5.48;91.50
62201;BME280;48197;42.732;27.192;2023-02-19T05:07:05;99850.50;;;5.47;92.12
62201;BME280;48197;42.732;27.192;2023-02-19T05:09:31;99861.31;;;5.63;92.09
62201;BME280;48197;42.732;27.192;2023-02-19T05:11:57;99858.09;;;5.84;90.58
62201;BME280;48197;42.732;27.192;2023-02-19T05:14:24;99865.84;;;6.01;89.40
62201;BME280;48197;42.732;27.192;2023-02-19T05:16:50;99869.13;;;6.10;88.46
62201;BME280;48197;42.732;27.192;2023-02-19T05:19:16;99863.78;;;6.21;87.91
62201;BME280;48197;42.732;27.192;2023-02-19T05:21:43;99868.88;;;6.23;87.50
62201;BME280;48197;42.732;27.192;2023-02-19T05:24:10;99864.47;;;6.15;87.95
62201;BME280;48197;42.732;27.192;2023-02-19T05:26:37;99861.75;;;6.18;87.85
62201;BME280;48197;42.732;27.192;2023-02-19T05:29:03;99853.94;;;6.20;87.70
62201;BME280;48197;42.732;27.192;2023-02-19T05:31:30;99855.25;;;6.30;87.01
62201;BME280;48197;42.732;27.192;2023-02-19T05:33:59;99845.53;;;6.36;86.56
62201;BME280;48197;42.732;27.192;2023-02-19T05:36:25;99852.66;;;6.41;86.31
62201;BME280;48197;42.732;27.192;2023-02-19T05:38:53;99847.25;;;6.48;85.58
62201;BME280;48197;42.732;27.192;2023-02-19T05:41:21;99842.97;;;6.50;85.32
62201;BME280;48197;42.732;27.192;2023-02-19T05:43:47;99835.56;;;6.54;85.07
62201;BME280;48197;42.732;27.192;2023-02-19T05:46:15;99837.16;;;6.59;84.67
62201;BME280;48197;42.732;27.192;2023-02-19T05:48:42;99842.78;;;6.66;84.24
62201;BME280;48197;42.732;27.192;2023-02-19T05:51:10;99847.63;;;6.80;83.81
62201;BME280;48197;42.732;27.192;2023-02-19T05:53:37;99846.69;;;7.03;83.08
62201;BME280;48197;42.732;27.192;2023-02-19T05:56:03;99859.56;;;7.36;81.18
62201;BME280;48197;42.732;27.192;2023-02-19T05:58:30;99847.63;;;7.62;79.75
62201;BME280;48197;42.732;27.192;2023-02-19T06:00:57;99850.03;;;7.71;78.42
62201;BME280;48197;42.732;27.192;2023-02-19T06:03:24;99851.31;;;7.84;78.45
62201;BME280;48197;42.732;27.192;2023-02-19T06:05:51;99853.44;;;8.09;77.56
62201;BME280;48197;42.732;27.192;2023-02-19T06:08:17;99844.19;;;8.46;75.77
62201;BME280;48197;42.732;27.192;2023-02-19T06:10:44;99849.41;;;8.72;74.62
62201;BME280;48197;42.732;27.192;2023-02-19T06:13:10;99849.84;;;8.82;74.82
62201;BME280;48197;42.732;27.192;2023-02-19T06:15:37;99850.22;;;8.76;74.24
62201;BME280;48197;42.732;27.192;2023-02-19T06:18:03;99858.84;;;8.68;75.17
62201;BME280;48197;42.732;27.192;2023-02-19T06:20:53;99850.66;;;8.93;75.55
62201;BME280;48197;42.732;27.192;2023-02-19T06:23:29;99846.00;;;9.22;74.41
62201;BME280;48197;42.732;27.192;2023-02-19T06:26:16;99846.78;;;9.62;71.89
62201;BME280;48197;42.732;27.192;2023-02-19T06:28:45;99843.59;;;9.96;70.47
62201;BME280;48197;42.732;27.192;2023-02-19T06:31:12;99840.44;;;9.97;70.19
62201;BME280;48197;42.732;27.192;2023-02-19T06:33:39;99857.41;;;9.96;70.47
62201;BME280;48197;42.732;27.192;2023-02-19T06:36:06;99854.28;;;9.90;70.67
62201;BME280;48197;42.732;27.192;2023-02-19T06:38:34;99853.47;;;9.97;69.94
62201;BME280;48197;42.732;27.192;2023-02-19T06:41:01;99855.00;;;10.09;69.94
62201;BME280;48197;42.732;27.192;2023-02-19T06:43:28;99851.06;;;10.31;68.53
62201;BME280;48197;42.732;27.192;2023-02-19T06:45:56;99868.66;;;10.73;67.40
62201;BME280;48197;42.732;27.192;2023-02-19T06:48:24;99867.25;;;11.14;66.41
62201;BME280;48197;42.732;27.192;2023-02-19T06:50:51;99869.13;;;11.28;64.74
62201;BME280;48197;42.732;27.192;2023-02-19T06:53:17;99871.81;;;11.42;64.33
62201;BME280;48197;42.732;27.192;2023-02-19T06:55:43;99880.06;;;11.49;63.01
62201;BME280;48197;42.732;27.192;2023-02-19T06:58:10;99881.22;;;11.52;62.67
62201;BME280;48197;42.732;27.192;2023-02-19T07:00:38;99874.59;;;11.87;62.38
62201;BME280;48197;42.732;27.192;2023-02-19T07:03:04;99876.50;;;12.35;60.63
62201;BME280;48197;42.732;27.192;2023-02-19T07:05:31;99876.47;;;12.73;58.43
62201;BME280;48197;42.732;27.192;2023-02-19T07:07:58;99869.31;;;13.06;56.99
62201;BME280;48197;42.732;27.192;2023-02-19T07:10:25;99873.69;;;13.35;55.92
62201;BME280;48197;42.732;27.192;2023-02-19T07:15:58;99881.28;;;14.25;53.72
62201;BME280;48197;42.732;27.192;2023-02-19T07:18:25;99877.44;;;14.62;51.66
62201;BME280;48197;42.732;27.192;2023-02-19T07:20:52;99871.59;;;14.77;51.48
62201;BME280;48197;42.732;27.192;2023-02-19T07:58:28;99906.47;;;16.49;46.80
62201;BME280;48197;42.732;27.192;2023-02-19T08:01:22;99900.72;;;16.69;46.76
62201;BME280;48197;42.732;27.192;2023-02-19T08:04:13;99904.31;;;17.24;45.96
62201;BME280;48197;42.732;27.192;2023-02-19T08:12:36;99883.59;;;18.33;41.90
62201;BME280;48197;42.732;27.192;2023-02-19T08:15:31;99883.78;;;18.39;42.41
62201;BME280;48197;42.732;27.192;2023-02-19T08:18:20;99878.97;;;19.06;41.47
62201;BME280;48197;42.732;27.192;2023-02-19T08:30:41;99848.91;;;19.37;39.65
62201;BME280;48197;42.732;27.192;2023-02-19T08:33:12;99858.16;;;18.85;39.16
62201;BME280;48197;42.732;27.192;2023-02-19T08:35:42;99874.69;;;18.70;39.09
62201;BME280;48197;42.732;27.192;2023-02-19T08:38:10;99859.75;;;18.73;39.62
62201;BME280;48197;42.732;27.192;2023-02-19T08:40:37;99852.34;;;19.01;39.33
62201;BME280;48197;42.732;27.192;2023-02-19T08:43:05;99842.56;;;19.06;38.51
62201;BME280;48197;42.732;27.192;2023-02-19T08:45:32;99856.84;;;18.76;38.93
62201;BME280;48197;42.732;27.192;2023-02-19T08:47:58;99849.22;;;18.55;39.45
62201;BME280;48197;42.732;27.192;2023-02-19T08:50:25;99842.25;;;18.60;39.26
62201;BME280;48197;42.732;27.192;2023-02-19T08:53:18;99838.31;;;18.48;39.03
62201;BME280;48197;42.732;27.192;2023-02-19T08:55:44;99837.72;;;18.53;39.16
62201;BME280;48197;42.732;27.192;2023-02-19T08:58:31;99841.97;;;18.67;38.99
62201;BME280;48197;42.732;27.192;2023-02-19T09:00:58;99822.84;;;18.87;38.70
62201;BME280;48197;42.732;27.192;2023-02-19T09:03:25;99828.78;;;18.89;38.65
62201;BME280;48197;42.732;27.192;2023-02-19T09:05:51;99822.94;;;19.06;38.51
62201;BME280;48197;42.732;27.192;2023-02-19T09:08:18;99821.38;;;19.05;38.07
62201;BME280;48197;42.732;27.192;2023-02-19T09:11:03;99807.41;;;19.14;38.19
62201;BME280;48197;42.732;27.192;2023-02-19T09:13:31;99830.69;;;19.02;37.98
62201;BME280;48197;42.732;27.192;2023-02-19T09:15:58;99829.94;;;19.01;38.26
62201;BME280;48197;42.732;27.192;2023-02-19T09:18:25;99823.75;;;19.15;37.66
62201;BME280;48197;42.732;27.192;2023-02-19T09:20:52;99825.47;;;19.22;38.07
62201;BME280;48197;42.732;27.192;2023-02-19T09:23:18;99836.69;;;19.22;38.16
62201;BME280;48197;42.732;27.192;2023-02-19T09:25:46;99833.88;;;19.22;37.56
62201;BME280;48197;42.732;27.192;2023-02-19T09:28:13;99846.41;;;19.40;37.97
62201;BME280;48197;42.732;27.192;2023-02-19T09:30:41;99838.31;;;19.42;37.23
62201;BME280;48197;42.732;27.192;2023-02-19T09:33:10;99814.00;;;19.38;37.02
62201;BME280;48197;42.732;27.192;2023-02-19T09:35:39;99818.19;;;19.25;37.42
62201;BME280;48197;42.732;27.192;2023-02-19T09:38:07;99826.44;;;19.28;37.54
62201;BME280;48197;42.732;27.192;2023-02-19T10:11:54;99814.56;;;19.15;35.85
62201;BME280;48197;42.732;27.192;2023-02-19T10:14:21;99805.09;;;18.81;36.66
62201;BME280;48197;42.732;27.192;2023-02-19T10:17:01;99813.22;;;18.66;37.51
62201;BME280;48197;42.732;27.192;2023-02-19T10:19:29;99821.66;;;18.44;37.42
62201;BME280;48197;42.732;27.192;2023-02-19T10:21:56;99809.66;;;18.22;37.82
62201;BME280;48197;42.732;27.192;2023-02-19T10:24:26;99804.59;;;18.07;38.50
62201;BME280;48197;42.732;27.192;2023-02-19T10:26:54;99794.19;;;18.30;38.31
62201;BME280;48197;42.732;27.192;2023-02-19T10:29:21;99789.25;;;18.34;37.60
62201;BME280;48197;42.732;27.192;2023-02-19T10:32:10;99789.16;;;18.47;37.91
62201;BME280;48197;42.732;27.192;2023-02-19T10:34:36;99783.81;;;18.62;37.42
62201;BME280;48197;42.732;27.192;2023-02-19T10:37:03;99773.72;;;18.95;36.92
62201;BME280;48197;42.732;27.192;2023-02-19T10:39:34;99767.72;;;19.15;36.83
62201;BME280;48197;42.732;27.192;2023-02-19T10:42:03;99768.34;;;19.10;36.43
62201;BME280;48197;42.732;27.192;2023-02-19T10:47:32;99770.00;;;19.57;35.87
62201;BME280;48197;42.732;27.192;2023-02-19T10:50:00;99767.25;;;19.76;36.12
62201;BME280;48197;42.732;27.192;2023-02-19T10:52:37;99753.03;;;19.98;35.76
62201;BME280;48197;42.732;27.192;2023-02-19T10:55:19;99759.28;;;19.93;35.06
62201;BME280;48197;42.732;27.192;2023-02-19T10:57:49;99747.13;;;19.77;35.16
62201;BME280;48197;42.732;27.192;2023-02-19T11:02:43;99745.88;;;19.78;36.02
62201;BME280;48197;42.732;27.192;2023-02-19T11:07:38;99729.69;;;19.92;35.34
62201;BME280;48197;42.732;27.192;2023-02-19T11:10:17;99728.41;;;20.21;35.38
62201;BME280;48197;42.732;27.192;2023-02-19T11:12:45;99725.41;;;20.33;34.38
62201;BME280;48197;42.732;27.192;2023-02-19T11:15:18;99726.31;;;20.39;34.13
62201;BME280;48197;42.732;27.192;2023-02-19T11:18:14;99720.69;;;20.39;34.13
62201;BME280;48197;42.732;27.192;2023-02-19T11:20:34;99716.09;;;20.09;34.28
62201;BME280;48197;42.732;27.192;2023-02-19T11:23:12;99724.78;;;20.29;34.80
62201;BME280;48197;42.732;27.192;2023-02-19T11:25:43;99706.06;;;20.26;34.14
62201;BME280;48197;42.732;27.192;2023-02-19T11:30:46;99694.34;;;20.37;34.53
62201;BME280;48197;42.732;27.192;2023-02-19T11:35:39;99685.25;;;20.94;31.95
62201;BME280;48197;42.732;27.192;2023-02-19T11:38:07;99682.72;;;20.96;32.09
62201;BME280;48197;42.732;27.192;2023-02-19T11:43:17;99669.34;;;21.15;32.28
62201;BME280;48197;42.732;27.192;2023-02-19T11:46:01;99667.13;;;21.19;32.48
62201;BME280;48197;42.732;27.192;2023-02-19T11:48:35;99663.41;;;21.37;32.07
62201;BME280;48197;42.732;27.192;2023-02-19T12:10:16;99643.53;;;22.09;30.29
62201;BME280;48197;42.732;27.192;2023-02-19T12:12:50;99644.13;;;21.84;29.86
62201;BME280;48197;42.732;27.192;2023-02-19T12:15:29;99636.56;;;21.75;29.45
62201;BME280;48197;42.732;27.192;2023-02-19T12:29:17;99628.75;;;21.55;29.90
62201;BME280;48197;42.732;27.192;2023-02-19T12:34:53;99626.16;;;21.27;31.02
62201;BME280;48197;42.732;27.192;2023-02-19T12:39:56;99614.72;;;21.85;29.59
62201;BME280;48197;42.732;27.192;2023-02-19T12:45:18;99616.81;;;21.45;31.17
62201;BME280;48197;42.732;27.192;2023-02-19T12:50:41;99601.91;;;21.98;29.81
62201;BME280;48197;42.732;27.192;2023-02-19T12:53:20;99616.47;;;21.82;30.48
62201;BME280;48197;42.732;27.192;2023-02-19T12:55:48;99621.44;;;21.72;30.60
62201;BME280;48197;42.732;27.192;2023-02-19T12:58:49;99615.22;;;21.68;30.99
62201;BME280;48197;42.732;27.192;2023-02-19T13:01:11;99611.06;;;21.39;31.04
62201;BME280;48197;42.732;27.192;2023-02-19T13:03:42;99604.66;;;21.39;31.37
62201;BME280;48197;42.732;27.192;2023-02-19T13:08:38;99611.69;;;21.58;31.40
62201;BME280;48197;42.732;27.192;2023-02-19T13:11:09;99610.25;;;21.78;31.16
62201;BME280;48197;42.732;27.192;2023-02-19T13:13:52;99609.19;;;21.90;30.92
62201;BME280;48197;42.732;27.192;2023-02-19T13:16:21;99609.75;;;21.50;31.64
62201;BME280;48197;42.732;27.192;2023-02-19T13:19:05;99614.03;;;21.60;31.95
62201;BME280;48197;42.732;27.192;2023-02-19T13:21:34;99618.97;;;21.65;31.62
62201;BME280;48197;42.732;27.192;2023-02-19T13:24:37;99614.41;;;21.53;32.14
62201;BME280;48197;42.732;27.192;2023-02-19T13:30:05;99619.72;;;21.12;32.52
62201;BME280;48197;42.732;27.192;2023-02-19T13:35:17;99608.69;;;21.08;32.59
62201;BME280;48197;42.732;27.192;2023-02-19T13:37:47;99596.16;;;21.09;32.71
62201;BME280;48197;42.732;27.192;2023-02-19T13:40:33;99586.25;;;21.38;32.64
62201;BME280;48197;42.732;27.192;2023-02-19T13:43:01;99583.47;;;21.97;31.82
62201;BME280;48197;42.732;27.192;2023-02-19T13:50:26;99581.16;;;21.81;31.82
62201;BME280;48197;42.732;27.192;2023-02-19T13:52:55;99577.19;;;21.88;32.09
62201;BME280;48197;42.732;27.192;2023-02-19T14:00:52;99563.78;;;20.17;34.82
62201;BME280;48197;42.732;27.192;2023-02-19T14:03:27;99574.19;;;19.84;34.89
62201;BME280;48197;42.732;27.192;2023-02-19T14:06:00;99579.03;;;19.65;35.71
62201;BME280;48197;42.732;27.192;2023-02-19T14:17:36;99591.66;;;19.60;36.44
62201;BME280;48197;42.732;27.192;2023-02-19T14:30:23;99595.78;;;20.44;35.12
62201;BME280;48197;42.732;27.192;2023-02-19T14:32:50;99574.84;;;20.21;35.21
62201;BME280;48197;42.732;27.192;2023-02-19T14:35:19;99606.59;;;19.85;35.28
62201;BME280;48197;42.732;27.192;2023-02-19T14:37:47;99592.00;;;19.53;36.15
62201;BME280;48197;42.732;27.192;2023-02-19T14:40:17;99583.16;;;19.27;36.53
62201;BME280;48197;42.732;27.192;2023-02-19T14:42:45;99574.59;;;19.12;37.08
62201;BME280;48197;42.732;27.192;2023-02-19T14:45:13;99578.16;;;18.94;37.38
62201;BME280;48197;42.732;27.192;2023-02-19T14:47:42;99567.69;;;18.76;37.90
62201;BME280;48197;42.732;27.192;2023-02-19T14:50:12;99574.97;;;18.64;38.04
62201;BME280;48197;42.732;27.192;2023-02-19T14:52:42;99569.06;;;18.62;37.86
62201;BME280;48197;42.732;27.192;2023-02-19T14:55:19;99576.69;;;18.62;37.87
62201;BME280;48197;42.732;27.192;2023-02-19T14:57:49;99581.41;;;18.83;37.89
62201;BME280;48197;42.732;27.192;2023-02-19T15:00:25;99584.53;;;18.94;37.08
62201;BME280;48197;42.732;27.192;2023-02-19T15:02:52;99581.13;;;19.00;37.07
62201;BME280;48197;42.732;27.192;2023-02-19T15:05:22;99576.28;;;19.09;36.97
62201;BME280;48197;42.732;27.192;2023-02-19T15:07:49;99570.53;;;19.13;37.07
62201;BME280;48197;42.732;27.192;2023-02-19T15:10:16;99578.94;;;19.13;36.87
62201;BME280;48197;42.732;27.192;2023-02-19T15:12:51;99584.53;;;18.94;36.93
62201;BME280;48197;42.732;27.192;2023-02-19T15:15:22;99572.66;;;18.72;37.33
62201;BME280;48197;42.732;27.192;2023-02-19T15:17:50;99578.84;;;18.67;37.65
62201;BME280;48197;42.732;27.192;2023-02-19T15:20:18;99583.06;;;18.62;37.90
62201;BME280;48197;42.732;27.192;2023-02-19T15:23:06;99580.06;;;18.47;38.12
62201;BME280;48197;42.732;27.192;2023-02-19T15:25:34;99587.13;;;18.21;38.41
62201;BME280;48197;42.732;27.192;2023-02-19T15:28:33;99583.28;;;17.96;38.88
62201;BME280;48197;42.732;27.192;2023-02-19T15:33:24;99589.19;;;17.67;39.69
62201;BME280;48197;42.732;27.192;2023-02-19T15:35:55;99581.63;;;17.54;39.90
62201;BME280;48197;42.732;27.192;2023-02-19T15:38:22;99597.31;;;17.52;40.26
62201;BME280;48197;42.732;27.192;2023-02-19T15:40:49;99601.91;;;17.46;40.45
62201;BME280;48197;42.732;27.192;2023-02-19T15:43:23;99598.72;;;17.34;40.60
62201;BME280;48197;42.732;27.192;2023-02-19T15:45:50;99608.19;;;17.15;41.01
62201;BME280;48197;42.732;27.192;2023-02-19T15:48:22;99612.31;;;17.10;41.30
62201;BME280;48197;42.732;27.192;2023-02-19T15:50:52;99605.75;;;17.04;41.47
62201;BME280;48197;42.732;27.192;2023-02-19T15:53:21;99606.34;;;16.99;41.51
62201;BME280;48197;42.732;27.192;2023-02-19T15:58:47;99610.59;;;16.91;41.86
62201;BME280;48197;42.732;27.192;2023-02-19T16:03:41;99608.41;;;16.60;42.70
62201;BME280;48197;42.732;27.192;2023-02-19T16:06:09;99610.66;;;16.52;43.18
62201;BME280;48197;42.732;27.192;2023-02-19T16:08:40;99602.63;;;16.42;43.05
62201;BME280;48197;42.732;27.192;2023-02-19T16:13:48;99601.84;;;16.28;43.56
62201;BME280;48197;42.732;27.192;2023-02-19T16:16:17;99603.97;;;16.24;43.57
62201;BME280;48197;42.732;27.192;2023-02-19T16:18:47;99604.97;;;16.18;43.87
62201;BME280;48197;42.732;27.192;2023-02-19T16:21:16;99607.19;;;16.10;43.99
62201;BME280;48197;42.732;27.192;2023-02-19T16:23:43;99604.41;;;15.97;44.29
62201;BME280;48197;42.732;27.192;2023-02-19T16:26:11;99606.16;;;15.91;44.63
62201;BME280;48197;42.732;27.192;2023-02-19T16:28:38;99614.94;;;15.77;45.05
62201;BME280;48197;42.732;27.192;2023-02-19T16:31:10;99616.84;;;15.50;45.23
62201;BME280;48197;42.732;27.192;2023-02-19T16:36:16;99617.13;;;15.10;46.15
62201;BME280;48197;42.732;27.192;2023-02-19T16:41:29;99623.53;;;14.78;47.01
62201;BME280;48197;42.732;27.192;2023-02-19T16:43:55;99620.31;;;14.80;47.19
62201;BME280;48197;42.732;27.192;2023-02-19T16:46:22;99631.44;;;14.80;47.29
62201;BME280;48197;42.732;27.192;2023-02-19T16:48:49;99622.97;;;15.00;47.77
62201;BME280;48197;42.732;27.192;2023-02-19T16:51:23;99618.75;;;15.24;47.14
62201;BME280;48197;42.732;27.192;2023-02-19T16:53:50;99633.16;;;15.36;47.19